sensor_id;sensor_type;location;lat;lon;timestamp;pressure;altitude;pressure_sealevel;temperature;humidity
18985;BME280;9626;52.552;13.436;2024-02-21T00:01:07;101459.63;;;8.05;100.00
18985;BME280;9626;52.552;13.436;2024-02-21T00:03:33;101456.97;;;8.08;100.00
18985;BME280;9626;52.552;13.436;2024-02-21T00:05:58;101453.47;;;8.10;100.00
18985;BME280;9626;52.552;13.436;2024-02-21T00:08:24;101452.56;;;8.05;100.00
18985;BME280;9626;52.552;13.436;2024-02-21T00:10:50;101449.06;;;8.03;100.00
18985;BME280;9626;52.552;13.436;2024-02-21T00:13:17;101447.28;;;8.08;100.00
18985;BME280;9626;52.552;13.436;2024-02-21T00:15:43;101442.03;;;8.04;100.00
18985;BME280;9626;52.552;13.436;2024-02-21T00:18:09;101446.41;;;7.99;100.00
18985;BME280;9626;52.552;13.436;2024-02-21T00:20:37;101442.03;;;7.99;100.00
18985;BME280;9626;52.552;13.436;2024-02-21T00:23:03;101434.97;;;8.01;100.00
18985;BME280;9626;52.552;13.436;2024-02-21T00:25:29;101431.44;;;7.96;100.00
18985;BME280;9626;52.552;13.436;2024-02-21T00:27:58;101427.94;;;7.91;100.00
18985;BME280;9626;52.552;13.436;2024-02-21T00:30:24;101428.75;;;7.81;100.00
18985;BME280;9626;52.552;13.436;2024-02-21T00:32:50;101423.50;;;7.77;100.00
18985;BME280;9626;52.552;13.436;2024-02-21T00:35:16;101425.25;;;7.85;100.00
18985;BME280;9626;52.552;13.436;2024-02-21T00:37:43;101425.22;;;7.75;100.00
18985;BME280;9626;52.552;13.436;2024-02-21T00:40:09;101425.25;;;7.80;100.00
18985;BME280;9626;52.552;13.436;2024-02-21T00:42:36;101428.81;;;7.87;100.00
18985;BME280;9626;52.552;13.436;2024-02-21T00:45:02;101421.72;;;7.79;100.00
18985;BME280;9626;52.552;13.436;2024-02-21T00:47:30;101425.25;;;7.82;100.00
18985;BME280;9626;52.552;13.436;2024-02-21T00:49:56;101412.94;;;7.84;100.00
18985;BME280;9626;52.552;13.436;2024-02-21T00:52:22;101415.59;;;7.82;100.00
18985;BME280;9626;52.552;13.436;2024-02-21T00:54:48;101410.31;;;7.82;100.00
18985;BME280;9626;52.552;13.436;2024-02-21T00:57:14;101412.97;;;7.90;100.00
18985;BME280;9626;52.552;13.436;2024-02-21T00:59:41;101412.97;;;7.90;100.00
18985;BME280;9626;52.552;13.436;2024-02-21T01:02:07;101407.66;;;7.84;100.00
18985;BME280;9626;52.552;13.436;2024-02-21T01:04:35;101408.53;;;7.78;100.00
18985;BME280;9626;52.552;13.436;2024-02-21T01:07:02;101397.13;;;7.81;100.00
18985;BME280;9626;52.552;13.436;2024-02-21T01:09:28;101401.53;;;7.82;100.00
18985;BME280;9626;52.552;13.436;2024-02-21T01:11:54;101392.75;;;7.87;100.00
18985;BME280;9626;52.552;13.436;2024-02-21T01:14:20;101398.03;;;7.90;100.00
18985;BME280;9626;52.552;13.436;2024-02-21T01:16:46;101392.75;;;7.83;100.00
18985;BME280;9626;52.552;13.436;2024-02-21T01:19:12;101384.84;;;7.83;100.00
18985;BME280;9626;52.552;13.436;2024-02-21T01:21:38;101388.34;;;7.80;100.00
18985;BME280;9626;52.552;13.436;2024-02-21T01:24:04;101387.44;;;7.78;100.00
18985;BME280;9626;52.552;13.436;2024-02-21T01:26:30;101385.72;;;7.86;100.00
18985;BME280;9626;52.552;13.436;2024-02-21T01:28:56;101379.53;;;7.79;100.00
18985;BME280;9626;52.552;13.436;2024-02-21T01:31:22;101382.16;;;7.75;100.00
18985;BME280;9626;52.552;13.436;2024-02-21T01:33:48;101380.44;;;7.82;100.00
18985;BME280;9626;52.552;13.436;2024-02-21T01:36:14;101379.59;;;7.95;100.00
18985;BME280;9626;52.552;13.436;2024-02-21T01:38:40;101378.69;;;7.91;100.00
18985;BME280;9626;52.552;13.436;2024-02-21T01:41:06;101373.41;;;7.96;100.00
18985;BME280;9626;52.552;13.436;2024-02-21T01:43:32;101369.03;;;7.90;100.00
18985;BME280;9626;52.552;13.436;2024-02-21T01:45:58;101371.69;;;8.00;100.00
18985;BME280;9626;52.552;13.436;2024-02-21T01:48:25;101374.31;;;7.97;100.00
18985;BME280;9626;52.552;13.436;2024-02-21T01:50:52;101376.09;;;8.02;100.00
18985;BME280;9626;52.552;13.436;2024-02-21T01:53:30;101374.28;;;7.92;100.00
18985;BME280;9626;52.552;13.436;2024-02-21T01:55:56;101365.50;;;7.96;100.00
18985;BME280;9626;52.552;13.436;2024-02-21T01:58:23;101367.28;;;7.95;100.00
18985;BME280;9626;52.552;13.436;2024-02-21T02:00:50;101363.75;;;7.89;100.00
18985;BME280;9626;52.552;13.436;2024-02-21T02:03:16;101359.38;;;7.92;100.00
18985;BME280;9626;52.552;13.436;2024-02-21T02:05:46;101361.09;;;7.89;100.00
18985;BME280;9626;52.552;13.436;2024-02-21T02:08:16;101358.47;;;7.86;100.00
18985;BME280;9626;52.552;13.436;2024-02-21T02:10:43;101347.06;;;7.87;100.00
18985;BME280;9626;52.552;13.436;2024-02-21T02:13:10;101343.53;;;7.91;100.00
18985;BME280;9626;52.552;13.436;2024-02-21T02:15:54;101342.66;;;7.89;100.00
18985;BME280;9626;52.552;13.436;2024-02-21T02:18:21;101342.69;;;7.93;100.00
18985;BME280;9626;52.552;13.436;2024-02-21T02:20:47;101337.34;;;7.81;100.00
18985;BME280;9626;52.552;13.436;2024-02-21T02:23:29;101331.22;;;7.79;100.00
18985;BME280;9626;52.552;13.436;2024-02-21T02:25:55;101333.78;;;7.62;100.00
18985;BME280;9626;52.552;13.436;2024-02-21T02:28:21;101334.66;;;7.55;100.00
18985;BME280;9626;52.552;13.436;2024-02-21T02:30:48;101336.44;;;7.51;100.00
18985;BME280;9626;52.552;13.436;2024-02-21T02:33:14;101333.75;;;7.47;100.00
18985;BME280;9626;52.552;13.436;2024-02-21T02:35:41;101326.72;;;7.42;100.00
18985;BME280;9626;52.552;13.436;2024-02-21T02:38:07;101323.16;;;7.39;100.00
18985;BME280;9626;52.552;13.436;2024-02-21T02:40:34;101317.91;;;7.33;100.00
18985;BME280;9626;52.552;13.436;2024-02-21T02:43:00;101324.91;;;7.29;100.00
18985;BME280;9626;52.552;13.436;2024-02-21T02:45:26;101322.25;;;7.27;100.00
18985;BME280;9626;52.552;13.436;2024-02-21T02:47:53;101321.34;;;7.24;100.00
18985;BME280;9626;52.552;13.436;2024-02-21T02:50:25;101324.91;;;7.26;100.00
18985;BME280;9626;52.552;13.436;2024-02-21T02:52:54;101314.34;;;7.21;100.00
18985;BME280;9626;52.552;13.436;2024-02-21T02:55:20;101322.25;;;7.24;100.00
18985;BME280;9626;52.552;13.436;2024-02-21T02:57:46;101314.38;;;7.29;100.00
18985;BME280;9626;52.552;13.436;2024-02-21T03:00:13;101308.19;;;7.16;100.00
18985;BME280;9626;52.552;13.436;2024-02-21T03:02:41;101309.91;;;7.14;100.00
18985;BME280;9626;52.552;13.436;2024-02-21T03:05:15;101305.50;;;7.08;100.00
18985;BME280;9626;52.552;13.436;2024-02-21T03:07:42;101305.53;;;7.18;100.00
18985;BME280;9626;52.552;13.436;2024-02-21T03:10:08;101298.50;;;7.10;100.00
18985;BME280;9626;52.552;13.436;2024-02-21T03:12:35;101301.13;;;7.09;100.00
18985;BME280;9626;52.552;13.436;2024-02-21T03:15:02;101297.53;;;6.96;100.00
18985;BME280;9626;52.552;13.436;2024-02-21T03:17:28;101297.53;;;6.98;100.00
18985;BME280;9626;52.552;13.436;2024-02-21T03:19:54;101301.09;;;7.01;100.00
18985;BME280;9626;52.552;13.436;2024-02-21T03:22:24;101300.19;;;6.99;100.00
18985;BME280;9626;52.552;13.436;2024-02-21T03:24:50;101283.50;;;6.94;100.00
18985;BME280;9626;52.552;13.436;2024-02-21T03:27:16;101294.91;;;6.90;100.00
18985;BME280;9626;52.552;13.436;2024-02-21T03:29:42;101287.88;;;6.93;100.00
18985;BME280;9626;52.552;13.436;2024-02-21T03:32:09;101292.28;;;6.93;100.00
18985;BME280;9626;52.552;13.436;2024-02-21T03:34:35;101287.00;;;6.98;100.00
18985;BME280;9626;52.552;13.436;2024-02-21T03:37:01;101288.78;;;7.00;100.00
18985;BME280;9626;52.552;13.436;2024-02-21T03:39:31;101291.41;;;6.94;100.00
18985;BME280;9626;52.552;13.436;2024-02-21T03:41:57;101287.00;;;6.90;100.00
18985;BME280;9626;52.552;13.436;2024-02-21T03:44:23;101286.97;;;6.85;100.00
18985;BME280;9626;52.552;13.436;2024-02-21T03:46:49;101286.03;;;6.75;100.00
18985;BME280;9626;52.552;13.436;2024-02-21T03:49:15;101289.59;;;6.84;100.00
18985;BME280;9626;52.552;13.436;2024-02-21T03:51:41;101265.81;;;6.70;100.00
18985;BME280;9626;52.552;13.436;2024-02-21T03:54:07;101276.41;;;6.79;100.00
18985;BME280;9626;52.552;13.436;2024-02-21T03:56:37;101265.84;;;6.77;100.00
18985;BME280;9626;52.552;13.436;2024-02-21T03:59:08;101268.50;;;6.79;100.00
18985;BME280;9626;52.552;13.436;2024-02-21T04:01:35;101268.50;;;6.81;100.00
18985;BME280;9626;52.552;13.436;2024-02-21T04:04:01;101267.66;;;6.83;100.00
18985;BME280;9626;52.552;13.436;2024-02-21T04:06:28;101266.81;;;6.89;100.00
18985;BME280;9626;52.552;13.436;2024-02-21T04:08:54;101258.91;;;6.86;100.00
18985;BME280;9626;52.552;13.436;2024-02-21T04:11:20;101249.22;;;6.85;100.00
18985;BME280;9626;52.552;13.436;2024-02-21T04:13:47;101251.88;;;6.85;100.00
18985;BME280;9626;52.552;13.436;2024-02-21T04:16:17;101256.22;;;6.76;100.00
18985;BME280;9626;52.552;13.436;2024-02-21T04:18:43;101244.81;;;6.82;100.00
18985;BME280;9626;52.552;13.436;2024-02-21T04:21:10;101241.34;;;6.85;100.00
18985;BME280;9626;52.552;13.436;2024-02-21T04:23:36;101234.31;;;6.85;100.00
18985;BME280;9626;52.552;13.436;2024-02-21T04:26:02;101226.44;;;6.91;100.00
18985;BME280;9626;52.552;13.436;2024-02-21T04:28:28;101229.03;;;6.88;100.00
18985;BME280;9626;52.552;13.436;2024-02-21T04:30:54;101228.19;;;6.88;100.00
18985;BME280;9626;52.552;13.436;2024-02-21T04:33:19;101212.38;;;6.82;100.00
18985;BME280;9626;52.552;13.436;2024-02-21T04:35:45;101208.00;;;6.90;100.00
18985;BME280;9626;52.552;13.436;2024-02-21T04:38:11;101203.63;;;6.92;100.00
18985;BME280;9626;52.552;13.436;2024-02-21T04:40:37;101192.22;;;6.99;100.00
18985;BME280;9626;52.552;13.436;2024-02-21T04:43:03;101181.69;;;6.94;100.00
18985;BME280;9626;52.552;13.436;2024-02-21T04:45:29;101181.69;;;6.96;100.00
18985;BME280;9626;52.552;13.436;2024-02-21T04:47:55;101178.19;;;6.99;100.00
18985;BME280;9626;52.552;13.436;2024-02-21T04:50:21;101172.91;;;6.92;100.00
18985;BME280;9626;52.552;13.436;2024-02-21T04:52:47;101178.19;;;7.00;100.00
18985;BME280;9626;52.552;13.436;2024-02-21T04:55:13;101175.56;;;6.97;100.00
18985;BME280;9626;52.552;13.436;2024-02-21T04:57:41;101176.44;;;6.96;100.00
18985;BME280;9626;52.552;13.436;2024-02-21T05:00:07;101172.06;;;6.98;100.00
18985;BME280;9626;52.552;13.436;2024-02-21T05:02:33;101169.41;;;6.95;100.00
18985;BME280;9626;52.552;13.436;2024-02-21T05:04:59;101160.66;;;7.04;100.00
18985;BME280;9626;52.552;13.436;2024-02-21T05:07:25;101161.53;;;7.01;100.00
18985;BME280;9626;52.552;13.436;2024-02-21T05:09:51;101172.06;;;7.04;100.00
18985;BME280;9626;52.552;13.436;2024-02-21T05:12:17;101171.19;;;7.02;100.00
18985;BME280;9626;52.552;13.436;2024-02-21T05:14:43;101166.75;;;6.97;100.00
18985;BME280;9626;52.552;13.436;2024-02-21T05:17:09;101164.13;;;6.97;100.00
18985;BME280;9626;52.552;13.436;2024-02-21T05:19:35;101159.75;;;7.00;100.00
18985;BME280;9626;52.552;13.436;2024-02-21T05:22:01;101162.41;;;6.97;100.00
18985;BME280;9626;52.552;13.436;2024-02-21T05:24:27;101165.03;;;7.03;100.00
18985;BME280;9626;52.552;13.436;2024-02-21T05:26:53;101158.00;;;6.99;100.00
18985;BME280;9626;52.552;13.436;2024-02-21T05:29:19;101151.88;;;6.99;100.00
18985;BME280;9626;52.552;13.436;2024-02-21T05:34:18;101157.13;;;7.03;100.00
18985;BME280;9626;52.552;13.436;2024-02-21T05:36:44;101151.84;;;7.03;100.00
18985;BME280;9626;52.552;13.436;2024-02-21T05:39:10;101165.06;;;7.05;100.00
18985;BME280;9626;52.552;13.436;2024-02-21T05:41:36;101171.16;;;6.99;100.00
18985;BME280;9626;52.552;13.436;2024-02-21T05:44:02;101166.78;;;7.00;100.00
18985;BME280;9626;52.552;13.436;2024-02-21T05:46:28;101152.75;;;7.05;100.00
18985;BME280;9626;52.552;13.436;2024-02-21T05:48:54;101147.50;;;7.05;100.00
18985;BME280;9626;52.552;13.436;2024-02-21T05:51:20;101153.63;;;7.01;100.00
18985;BME280;9626;52.552;13.436;2024-02-21T05:53:46;101154.50;;;7.00;100.00
18985;BME280;9626;52.552;13.436;2024-02-21T05:56:13;101141.34;;;7.08;100.00
18985;BME280;9626;52.552;13.436;2024-02-21T05:58:39;101144.88;;;7.02;100.00
18985;BME280;9626;52.552;13.436;2024-02-21T06:01:05;101134.31;;;7.04;100.00
18985;BME280;9626;52.552;13.436;2024-02-21T06:03:33;101136.06;;;7.03;100.00
18985;BME280;9626;52.552;13.436;2024-02-21T06:06:00;101131.69;;;7.05;100.00
18985;BME280;9626;52.552;13.436;2024-02-21T06:08:26;101143.09;;;7.06;100.00
18985;BME280;9626;52.552;13.436;2024-02-21T06:10:52;101128.19;;;7.06;100.00
18985;BME280;9626;52.552;13.436;2024-02-21T06:13:22;101130.81;;;7.08;100.00
18985;BME280;9626;52.552;13.436;2024-02-21T06:15:48;101127.31;;;7.09;100.00
18985;BME280;9626;52.552;13.436;2024-02-21T06:18:18;101121.16;;;7.10;100.00
18985;BME280;9626;52.552;13.436;2024-02-21T06:20:44;101113.28;;;7.13;100.00
18985;BME280;9626;52.552;13.436;2024-02-21T06:23:16;101118.56;;;7.13;100.00
18985;BME280;9626;52.552;13.436;2024-02-21T06:25:46;101119.41;;;7.17;100.00
18985;BME280;9626;52.552;13.436;2024-02-21T06:28:14;101124.69;;;7.18;100.00
18985;BME280;9626;52.552;13.436;2024-02-21T06:30:40;101120.28;;;7.16;100.00
18985;BME280;9626;52.552;13.436;2024-02-21T06:33:06;101117.66;;;7.25;100.00
18985;BME280;9626;52.552;13.436;2024-02-21T06:35:34;101115.91;;;7.24;100.00
18985;BME280;9626;52.552;13.436;2024-02-21T06:37:59;101114.16;;;7.26;100.00
18985;BME280;9626;52.552;13.436;2024-02-21T06:40:26;101123.84;;;7.25;100.00
18985;BME280;9626;52.552;13.436;2024-02-21T06:42:52;101132.59;;;7.26;100.00
18985;BME280;9626;52.552;13.436;2024-02-21T06:45:18;101127.34;;;7.24;100.00
18985;BME280;9626;52.552;13.436;2024-02-21T06:47:44;101128.22;;;7.28;100.00
18985;BME280;9626;52.552;13.436;2024-02-21T06:50:11;101121.19;;;7.32;100.00
18985;BME280;9626;52.552;13.436;2024-02-21T06:52:36;101129.97;;;7.32;100.00
18985;BME280;9626;52.552;13.436;2024-02-21T06:55:03;101130.84;;;7.33;100.00
18985;BME280;9626;52.552;13.436;2024-02-21T06:57:29;101129.97;;;7.41;100.00
18985;BME280;9626;52.552;13.436;2024-02-21T06:59:55;101124.72;;;7.32;100.00
18985;BME280;9626;52.552;13.436;2024-02-21T07:02:21;101128.22;;;7.34;100.00
18985;BME280;9626;52.552;13.436;2024-02-21T07:04:47;101136.97;;;7.33;100.00
18985;BME280;9626;52.552;13.436;2024-02-21T07:07:13;101132.59;;;7.38;100.00
18985;BME280;9626;52.552;13.436;2024-02-21T07:09:39;101134.38;;;7.39;100.00
18985;BME280;9626;52.552;13.436;2024-02-21T07:12:05;101128.22;;;7.43;100.00
18985;BME280;9626;52.552;13.436;2024-02-21T07:14:32;101127.34;;;7.46;100.00
18985;BME280;9626;52.552;13.436;2024-02-21T07:16:58;101129.97;;;7.51;100.00
18985;BME280;9626;52.552;13.436;2024-02-21T07:19:25;101123.81;;;7.44;100.00
18985;BME280;9626;52.552;13.436;2024-02-21T07:21:51;101129.97;;;7.46;100.00
18985;BME280;9626;52.552;13.436;2024-02-21T07:24:18;101129.97;;;7.54;100.00
18985;BME280;9626;52.552;13.436;2024-02-21T07:26:45;101119.44;;;7.57;100.00
18985;BME280;9626;52.552;13.436;2024-02-21T07:29:11;101117.69;;;7.54;100.00
18985;BME280;9626;52.552;13.436;2024-02-21T07:31:43;101120.31;;;7.57;100.00
18985;BME280;9626;52.552;13.436;2024-02-21T07:34:09;101126.47;;;7.64;100.00
18985;BME280;9626;52.552;13.436;2024-02-21T07:36:37;101112.41;;;7.67;100.00
18985;BME280;9626;52.552;13.436;2024-02-21T07:39:04;101112.41;;;7.65;100.00
18985;BME280;9626;52.552;13.436;2024-02-21T07:41:30;101115.94;;;7.70;100.00
18985;BME280;9626;52.552;13.436;2024-02-21T07:43:57;101118.53;;;7.75;100.00
18985;BME280;9626;52.552;13.436;2024-02-21T07:46:24;101120.31;;;7.65;100.00
18985;BME280;9626;52.552;13.436;2024-02-21T07:48:50;101110.66;;;7.73;100.00
18985;BME280;9626;52.552;13.436;2024-02-21T07:51:16;101117.66;;;7.68;100.00
18985;BME280;9626;52.552;13.436;2024-02-21T07:53:44;101116.78;;;7.75;100.00
18985;BME280;9626;52.552;13.436;2024-02-21T07:56:12;101116.78;;;7.65;100.00
18985;BME280;9626;52.552;13.436;2024-02-21T07:58:38;101120.31;;;7.59;100.00
18985;BME280;9626;52.552;13.436;2024-02-21T08:01:05;101115.91;;;7.64;100.00
18985;BME280;9626;52.552;13.436;2024-02-21T08:03:31;101116.78;;;7.65;100.00
18985;BME280;9626;52.552;13.436;2024-02-21T08:05:58;101107.13;;;7.70;100.00
18985;BME280;9626;52.552;13.436;2024-02-21T08:08:24;101108.88;;;7.69;100.00
18985;BME280;9626;52.552;13.436;2024-02-21T08:10:51;101100.06;;;7.78;100.00
18985;BME280;9626;52.552;13.436;2024-02-21T08:13:17;101100.97;;;7.74;100.00
18985;BME280;9626;52.552;13.436;2024-02-21T08:15:43;101104.47;;;7.71;100.00
18985;BME280;9626;52.552;13.436;2024-02-21T08:18:10;101098.34;;;7.72;100.00
18985;BME280;9626;52.552;13.436;2024-02-21T08:20:36;101093.06;;;7.75;100.00
18985;BME280;9626;52.552;13.436;2024-02-21T08:23:03;101115.03;;;7.74;100.00
18985;BME280;9626;52.552;13.436;2024-02-21T08:25:29;101095.69;;;7.82;100.00
18985;BME280;9626;52.552;13.436;2024-02-21T08:27:57;101110.63;;;7.79;100.00
18985;BME280;9626;52.552;13.436;2024-02-21T08:30:23;101100.06;;;7.86;100.00
18985;BME280;9626;52.552;13.436;2024-02-21T08:32:50;101096.56;;;7.87;100.00
18985;BME280;9626;52.552;13.436;2024-02-21T08:35:16;101099.19;;;7.85;100.00
18985;BME280;9626;52.552;13.436;2024-02-21T08:37:44;101093.03;;;7.85;100.00
18985;BME280;9626;52.552;13.436;2024-02-21T08:40:14;101096.53;;;7.93;100.00
18985;BME280;9626;52.552;13.436;2024-02-21T08:42:43;101100.94;;;8.02;100.00
18985;BME280;9626;52.552;13.436;2024-02-21T08:45:10;101093.03;;;7.94;100.00
18985;BME280;9626;52.552;13.436;2024-02-21T08:47:36;101105.31;;;7.92;100.00
18985;BME280;9626;52.552;13.436;2024-02-21T08:50:02;101097.38;;;8.04;100.00
18985;BME280;9626;52.552;13.436;2024-02-21T08:52:28;101103.53;;;8.09;100.00
18985;BME280;9626;52.552;13.436;2024-02-21T08:54:54;101096.47;;;8.15;100.00
18985;BME280;9626;52.552;13.436;2024-02-21T08:57:20;101100.84;;;8.23;100.00
18985;BME280;9626;52.552;13.436;2024-02-21T08:59:46;101100.88;;;8.17;100.00
18985;BME280;9626;52.552;13.436;2024-02-21T09:02:13;101101.75;;;8.18;100.00
18985;BME280;9626;52.552;13.436;2024-02-21T09:04:39;101110.53;;;8.29;100.00
18985;BME280;9626;52.552;13.436;2024-02-21T09:07:05;101100.81;;;8.36;100.00
18985;BME280;9626;52.552;13.436;2024-02-21T09:09:31;101108.78;;;8.25;100.00
18985;BME280;9626;52.552;13.436;2024-02-21T09:11:59;101103.47;;;8.31;100.00
18985;BME280;9626;52.552;13.436;2024-02-21T09:14:32;101107.81;;;8.38;100.00
18985;BME280;9626;52.552;13.436;2024-02-21T09:16:58;101101.69;;;8.36;100.00
18985;BME280;9626;52.552;13.436;2024-02-21T09:19:24;101091.97;;;8.48;100.00
18985;BME280;9626;52.552;13.436;2024-02-21T09:21:50;101091.09;;;8.52;100.00
18985;BME280;9626;52.552;13.436;2024-02-21T09:24:17;101091.13;;;8.45;100.00
18985;BME280;9626;52.552;13.436;2024-02-21T09:26:43;101087.59;;;8.51;100.00
18985;BME280;9626;52.552;13.436;2024-02-21T09:29:09;101082.28;;;8.56;100.00
18985;BME280;9626;52.552;13.436;2024-02-21T09:31:35;101092.81;;;8.56;100.00
18985;BME280;9626;52.552;13.436;2024-02-21T09:34:02;101081.34;;;8.66;100.00
18985;BME280;9626;52.552;13.436;2024-02-21T09:36:27;101083.97;;;8.68;100.00
18985;BME280;9626;52.552;13.436;2024-02-21T09:38:54;101073.44;;;8.66;100.00
18985;BME280;9626;52.552;13.436;2024-02-21T09:41:27;101073.31;;;8.85;100.00
18985;BME280;9626;52.552;13.436;2024-02-21T09:43:53;101073.25;;;8.94;100.00
18985;BME280;9626;52.552;13.436;2024-02-21T09:46:38;101064.38;;;9.04;100.00
18985;BME280;9626;52.552;13.436;2024-02-21T09:51:37;101068.84;;;8.93;100.00
18985;BME280;9626;52.552;13.436;2024-02-21T09:54:07;101083.69;;;9.12;100.00
18985;BME280;9626;52.552;13.436;2024-02-21T09:56:33;101083.69;;;9.12;100.00
18985;BME280;9626;52.552;13.436;2024-02-21T09:59:01;101069.63;;;9.09;100.00
18985;BME280;9626;52.552;13.436;2024-02-21T10:01:31;101081.06;;;9.06;100.00
18985;BME280;9626;52.552;13.436;2024-02-21T10:03:57;101075.78;;;9.11;100.00
18985;BME280;9626;52.552;13.436;2024-02-21T10:06:23;101061.66;;;9.17;100.00
18985;BME280;9626;52.552;13.436;2024-02-21T10:08:53;101068.59;;;9.25;100.00
18985;BME280;9626;52.552;13.436;2024-02-21T10:11:25;101066.00;;;9.21;100.00
18985;BME280;9626;52.552;13.436;2024-02-21T10:14:02;101071.34;;;9.18;100.00
18985;BME280;9626;52.552;13.436;2024-02-21T10:16:29;101070.34;;;9.28;100.00
18985;BME280;9626;52.552;13.436;2024-02-21T10:18:55;101064.13;;;9.38;100.00
18985;BME280;9626;52.552;13.436;2024-02-21T10:21:21;101073.81;;;9.35;100.00
18985;BME280;9626;52.552;13.436;2024-02-21T10:23:51;101068.56;;;9.33;100.00
18985;BME280;9626;52.552;13.436;2024-02-21T10:26:18;101074.78;;;9.26;100.00
18985;BME280;9626;52.552;13.436;2024-02-21T10:28:45;101068.53;;;9.35;100.00
18985;BME280;9626;52.552;13.436;2024-02-21T10:31:26;101061.47;;;9.35;100.00
18985;BME280;9626;52.552;13.436;2024-02-21T10:33:56;101071.06;;;9.48;100.00
18985;BME280;9626;52.552;13.436;2024-02-21T10:36:23;101072.66;;;9.65;100.00
18985;BME280;9626;52.552;13.436;2024-02-21T10:38:53;101082.38;;;9.63;100.00
18985;BME280;9626;52.552;13.436;2024-02-21T10:41:21;101073.56;;;9.62;100.00
18985;BME280;9626;52.552;13.436;2024-02-21T10:43:51;101081.59;;;9.50;100.00
18985;BME280;9626;52.552;13.436;2024-02-21T10:46:21;101057.88;;;9.45;100.00
18985;BME280;9626;52.552;13.436;2024-02-21T10:48:48;101057.91;;;9.39;100.00
18985;BME280;9626;52.552;13.436;2024-02-21T10:51:26;101079.06;;;9.41;100.00
18985;BME280;9626;52.552;13.436;2024-02-21T10:54:19;101052.72;;;9.32;100.00
18985;BME280;9626;52.552;13.436;2024-02-21T10:56:51;101048.34;;;9.27;100.00
18985;BME280;9626;52.552;13.436;2024-02-21T10:59:18;101052.75;;;9.25;100.00
18985;BME280;9626;52.552;13.436;2024-02-21T11:01:44;101048.31;;;9.29;100.00
18985;BME280;9626;52.552;13.436;2024-02-21T11:04:11;101054.53;;;9.20;100.00
18985;BME280;9626;52.552;13.436;2024-02-21T11:06:41;101036.06;;;9.19;100.00
18985;BME280;9626;52.552;13.436;2024-02-21T11:09:09;101038.69;;;9.25;100.00
18985;BME280;9626;52.552;13.436;2024-02-21T11:11:37;101031.63;;;9.25;100.00
18985;BME280;9626;52.552;13.436;2024-02-21T11:14:07;101028.16;;;9.17;100.00
18985;BME280;9626;52.552;13.436;2024-02-21T11:16:39;101026.31;;;9.30;100.00
18985;BME280;9626;52.552;13.436;2024-02-21T11:19:07;101026.88;;;9.63;100.00
18985;BME280;9626;52.552;13.436;2024-02-21T11:21:34;101012.59;;;9.79;100.00
18985;BME280;9626;52.552;13.436;2024-02-21T11:24:04;101005.56;;;9.75;100.00
18985;BME280;9626;52.552;13.436;2024-02-21T11:26:31;101000.34;;;9.69;100.00
18985;BME280;9626;52.552;13.436;2024-02-21T11:29:01;100998.63;;;9.68;100.00
18985;BME280;9626;52.552;13.436;2024-02-21T11:31:42;100989.50;;;9.92;100.00
18985;BME280;9626;52.552;13.436;2024-02-21T11:34:09;100997.56;;;9.83;100.00
18985;BME280;9626;52.552;13.436;2024-02-21T11:36:35;100985.03;;;9.97;100.00
18985;BME280;9626;52.552;13.436;2024-02-21T11:39:04;100989.09;;;10.25;100.00
18985;BME280;9626;52.552;13.436;2024-02-21T11:41:31;100980.16;;;10.34;100.00
18985;BME280;9626;52.552;13.436;2024-02-21T11:43:57;100966.03;;;10.35;100.00
18985;BME280;9626;52.552;13.436;2024-02-21T11:46:23;100962.16;;;10.59;100.00
18985;BME280;9626;52.552;13.436;2024-02-21T11:48:49;100964.22;;;10.40;100.00
18985;BME280;9626;52.552;13.436;2024-02-21T11:51:25;100955.00;;;10.65;100.00
18985;BME280;9626;52.552;13.436;2024-02-21T11:53:52;100944.38;;;10.67;100.00
18985;BME280;9626;52.552;13.436;2024-02-21T11:56:19;100959.44;;;10.65;100.00
18985;BME280;9626;52.552;13.436;2024-02-21T11:58:46;100944.91;;;10.30;100.00
18985;BME280;9626;52.552;13.436;2024-02-21T12:01:13;100954.63;;;10.28;100.00
18985;BME280;9626;52.552;13.436;2024-02-21T12:03:40;100949.25;;;10.37;100.00
18985;BME280;9626;52.552;13.436;2024-02-21T12:06:07;100946.34;;;10.56;100.00
18985;BME280;9626;52.552;13.436;2024-02-21T12:08:43;100946.34;;;10.56;100.00
18985;BME280;9626;52.552;13.436;2024-02-21T12:11:25;100942.47;;;10.75;100.00
18985;BME280;9626;52.552;13.436;2024-02-21T12:14:01;100934.72;;;10.64;100.00
18985;BME280;9626;52.552;13.436;2024-02-21T12:16:31;100930.09;;;10.77;100.00
18985;BME280;9626;52.552;13.436;2024-02-21T12:19:00;100927.09;;;10.99;100.00
18985;BME280;9626;52.552;13.436;2024-02-21T12:21:27;100919.91;;;11.06;100.00
18985;BME280;9626;52.552;13.436;2024-02-21T12:23:55;100924.03;;;11.22;100.00
18985;BME280;9626;52.552;13.436;2024-02-21T12:26:22;100905.59;;;11.14;100.00
18985;BME280;9626;52.552;13.436;2024-02-21T12:28:48;100906.00;;;11.41;100.00
18985;BME280;9626;52.552;13.436;2024-02-21T12:31:14;100891.38;;;11.64;100.00
18985;BME280;9626;52.552;13.436;2024-02-21T12:33:42;100889.38;;;11.31;100.00
18985;BME280;9626;52.552;13.436;2024-02-21T12:36:08;100897.25;;;11.36;100.00
18985;BME280;9626;52.552;13.436;2024-02-21T12:38:35;100895.31;;;11.44;100.00
18985;BME280;9626;52.552;13.436;2024-02-21T12:41:01;100888.72;;;12.06;100.00
18985;BME280;9626;52.552;13.436;2024-02-21T12:43:27;100884.38;;;12.41;100.00
18985;BME280;9626;52.552;13.436;2024-02-21T12:45:53;100863.03;;;12.80;100.00
18985;BME280;9626;52.552;13.436;2024-02-21T12:48:19;100868.38;;;13.13;100.00
18985;BME280;9626;52.552;13.436;2024-02-21T12:50:49;100853.06;;;14.13;100.00
18985;BME280;9626;52.552;13.436;2024-02-21T12:53:19;100871.31;;;13.35;100.00